Charles B. Wheeler Downtown Airport
KMKC : now visible

Airfield :











YOU CAN JOIN US ON...

 
LOGIN :

Register | Disclaimer

   EN    FR    IT 

 









Legend :    VFR   Marginal VFR   IFR   Intensive IFR   Very Intensive IFR
Visi :
Ceiling :
>= 8 km
>= 3000ft
5 to 8 km
1000 to 3000 ft
1500m to 5 km
500 to 1000 ft
800 to 1500m
200 to 500 ft
< 800m
< 200 ft
Symbols :   Thunderstorms  Fog  Heavy snow  Heavy precipitations  Wind > 20 kt






- Airport Elevation : 759 ft
- IATA code : MKC


KMKC - Charles B. Wheeler Downtown

CURRENT METAR :
  • 291354Z 02005KT 8SM BKN011 OVC017 M02/M04 A3017 RMK AO2 SNE42 SLP226 P0000 T10221044

EXPIRED METARs :
  • 291332Z 36005KT 4SM -SN BR SCT008 BKN011 OVC015 M02/M04 A3017 RMK AO2 P0000 T10221039
  • 291320Z 01005KT 2 1/2SM -SN BR BKN008 BKN016 OVC060 M02/M04 A3016 RMK AO2 P0000 T10221039
  • 291305Z 05003KT 4SM -SN BR BKN038 OVC060 M02/M04 A3015 RMK AO2 P0000 T10221039
  • 291245Z 04004KT 2 1/2SM -SN BR SCT009 OVC028 M02/M04 A3014 RMK AO2 P0000 T10221039
  • 291227Z 01005KT 2SM -SN BR BKN009 OVC029 M02/M04 A3014 RMK AO2 P0000 T10221039
  • 291154Z 06004KT 2SM -SN BR FEW005 OVC027 M02/M04 A3013 RMK AO2 SLP210 P0000 60000 T10221039 11011 21022 53006
  • 291143Z 08005KT 2 1/2SM -SN BR FEW005 OVC029 M02/M04 A3012 RMK AO2 P0000 T10221039
  • 291136Z 07005KT 3SM -SN BR FEW005 OVC031 M02/M04 A3012 RMK AO2 P0000 T10221039

TAF KMKC
Valid from the 29 at 14:00 until the 30 at 12:00 UTC


291348Z 2914/3012 01005KT 6SM -SN SCT008 OVC010
FM291430 01005KT 6SM BR SCT008 OVC012
FM300200 VRB03KT 6SM BR OVC008
FM300800 14003KT 3SM BR OVC005



MET'MAP, your aeronautical weather chart ! - Copyright ORBIFLY December 2007 - Disclaimer

ORBIFLY MET'MAP TEAM :

Programming & Development : Alexandra Zaïnal
Concept & original design : Baudouin d'Aumeries
Assistance for programming : Marc-Olivier Méhu
Technical & hardware support : Manuel Goepfert

Contact : metmap@orbifly.com




SOURCES & CREDITS :

   NOAA       Earth
Advisory